Terminal Aerodrome Forecast
Issued by NWS

Home | Current Version | Previous Version | Text Only | Print | Product List | Glossary Off
Versions: 1 2 3 4 5 6 7 8 9 10 11 12 13

000
FTUS43 KUNR 301120
TAFGCC
TAF
KGCC 301120Z 3012/3112 16012KT P6SM BKN007
     FM301600 17018G28KT P6SM BKN100
     FM310300 17010KT P6SM BKN100=

USA.gov is the U.S. government's official web portal to all federal, state and local government web resources and services.